Wimauma, Florida
Current Conditions -  °F | °C
As of 5:58 AM on Friday 31 Oct 2014 (Local Time) from KMCF Reporting Station
Clear Clear  
Wind Chill: 67°   Ceiling: Unl
Heat Index: 67°   Visibility: 10mi
Dew Point: 67°   Wind: 5mph
Humidity: 97%   Direction: 340°NNW
Pressure: 29.86"   Gusts: NA
Location:  27.71°N, 82.3°W
Report Text: KMCF 310958Z AUTO 34004KT 10SM CLR 20/19 A2986 RMK AO2 SLP115 T01970192
Loading
Personal Weather Stations






























Interactive Weather Map
Tropical Storm Tracking
New forecast layout! Learn more

10-Day Weather Forecast

Advertisements
Track Severe Weather on mobile